sensor_id;sensor_type;location;lat;lon;timestamp;P1;durP1;ratioP1;P2;durP2;ratioP2
6197;SDS011;3132;42.622;23.328;2023-05-07T00:00:04;11.27;;;10.60;;
6197;SDS011;3132;42.622;23.328;2023-05-07T00:02:33;11.90;;;11.10;;
6197;SDS011;3132;42.622;23.328;2023-05-07T00:04:59;11.43;;;10.33;;
6197;SDS011;3132;42.622;23.328;2023-05-07T00:07:24;11.43;;;10.73;;
6197;SDS011;3132;42.622;23.328;2023-05-07T00:09:50;11.47;;;10.77;;
6197;SDS011;3132;42.622;23.328;2023-05-07T00:12:15;12.60;;;11.67;;
6197;SDS011;3132;42.622;23.328;2023-05-07T00:14:40;12.20;;;11.50;;
6197;SDS011;3132;42.622;23.328;2023-05-07T00:17:06;11.60;;;10.60;;
6197;SDS011;3132;42.622;23.328;2023-05-07T00:19:31;11.87;;;10.87;;
6197;SDS011;3132;42.622;23.328;2023-05-07T00:21:57;11.57;;;10.77;;
6197;SDS011;3132;42.622;23.328;2023-05-07T00:24:23;11.13;;;10.43;;
6197;SDS011;3132;42.622;23.328;2023-05-07T00:26:49;12.57;;;11.63;;
6197;SDS011;3132;42.622;23.328;2023-05-07T00:29:14;12.27;;;11.47;;
6197;SDS011;3132;42.622;23.328;2023-05-07T00:31:40;11.47;;;10.77;;
6197;SDS011;3132;42.622;23.328;2023-05-07T00:34:05;12.00;;;11.13;;
6197;SDS011;3132;42.622;23.328;2023-05-07T00:36:31;12.67;;;11.67;;
6197;SDS011;3132;42.622;23.328;2023-05-07T00:38:58;11.20;;;10.33;;
6197;SDS011;3132;42.622;23.328;2023-05-07T00:41:25;12.37;;;11.57;;
6197;SDS011;3132;42.622;23.328;2023-05-07T00:43:50;12.63;;;11.83;;
6197;SDS011;3132;42.622;23.328;2023-05-07T00:46:22;12.73;;;11.93;;
6197;SDS011;3132;42.622;23.328;2023-05-07T00:48:48;12.80;;;11.90;;
6197;SDS011;3132;42.622;23.328;2023-05-07T00:51:13;12.07;;;11.37;;
6197;SDS011;3132;42.622;23.328;2023-05-07T00:53:39;11.50;;;10.77;;
6197;SDS011;3132;42.622;23.328;2023-05-07T00:56:04;12.23;;;11.30;;
6197;SDS011;3132;42.622;23.328;2023-05-07T00:58:31;12.97;;;12.10;;
6197;SDS011;3132;42.622;23.328;2023-05-07T01:00:58;12.57;;;11.67;;
6197;SDS011;3132;42.622;23.328;2023-05-07T01:03:24;11.37;;;10.67;;
6197;SDS011;3132;42.622;23.328;2023-05-07T01:05:50;11.63;;;10.83;;
6197;SDS011;3132;42.622;23.328;2023-05-07T01:08:18;13.80;;;12.80;;
6197;SDS011;3132;42.622;23.328;2023-05-07T01:10:44;14.20;;;12.47;;
6197;SDS011;3132;42.622;23.328;2023-05-07T01:13:10;13.77;;;12.47;;
6197;SDS011;3132;42.622;23.328;2023-05-07T01:15:39;13.63;;;12.63;;
6197;SDS011;3132;42.622;23.328;2023-05-07T01:18:06;14.60;;;13.47;;
6197;SDS011;3132;42.622;23.328;2023-05-07T01:20:32;13.90;;;12.90;;
6197;SDS011;3132;42.622;23.328;2023-05-07T01:22:57;14.27;;;12.93;;
6197;SDS011;3132;42.622;23.328;2023-05-07T01:25:25;13.50;;;12.50;;
6197;SDS011;3132;42.622;23.328;2023-05-07T01:27:51;13.13;;;12.13;;
6197;SDS011;3132;42.622;23.328;2023-05-07T01:30:16;13.73;;;12.73;;
6197;SDS011;3132;42.622;23.328;2023-05-07T01:35:13;13.73;;;12.73;;
6197;SDS011;3132;42.622;23.328;2023-05-07T01:37:43;14.73;;;13.50;;
6197;SDS011;3132;42.622;23.328;2023-05-07T01:40:10;12.33;;;11.43;;
6197;SDS011;3132;42.622;23.328;2023-05-07T01:42:36;14.30;;;13.10;;
6197;SDS011;3132;42.622;23.328;2023-05-07T01:45:01;12.27;;;11.37;;
6197;SDS011;3132;42.622;23.328;2023-05-07T01:47:27;12.97;;;11.97;;
6197;SDS011;3132;42.622;23.328;2023-05-07T01:49:54;13.13;;;12.17;;
6197;SDS011;3132;42.622;23.328;2023-05-07T01:52:20;13.07;;;12.10;;
6197;SDS011;3132;42.622;23.328;2023-05-07T01:54:45;12.87;;;11.67;;
6197;SDS011;3132;42.622;23.328;2023-05-07T01:57:11;13.67;;;12.67;;
6197;SDS011;3132;42.622;23.328;2023-05-07T01:59:36;11.77;;;10.77;;
6197;SDS011;3132;42.622;23.328;2023-05-07T02:02:02;11.73;;;10.93;;
6197;SDS011;3132;42.622;23.328;2023-05-07T02:04:27;12.20;;;11.40;;
6197;SDS011;3132;42.622;23.328;2023-05-07T02:06:52;12.00;;;11.20;;
6197;SDS011;3132;42.622;23.328;2023-05-07T02:09:18;14.10;;;12.73;;
6197;SDS011;3132;42.622;23.328;2023-05-07T02:11:43;13.27;;;12.07;;
6197;SDS011;3132;42.622;23.328;2023-05-07T02:14:09;12.63;;;11.73;;
6197;SDS011;3132;42.622;23.328;2023-05-07T02:16:35;12.77;;;11.90;;
6197;SDS011;3132;42.622;23.328;2023-05-07T02:19:00;13.37;;;12.37;;
6197;SDS011;3132;42.622;23.328;2023-05-07T02:21:25;13.77;;;12.10;;
6197;SDS011;3132;42.622;23.328;2023-05-07T02:23:51;14.17;;;12.47;;
6197;SDS011;3132;42.622;23.328;2023-05-07T02:26:16;13.23;;;12.10;;
6197;SDS011;3132;42.622;23.328;2023-05-07T02:28:42;12.67;;;11.47;;
6197;SDS011;3132;42.622;23.328;2023-05-07T02:31:08;14.00;;;12.83;;
6197;SDS011;3132;42.622;23.328;2023-05-07T02:33:33;13.57;;;12.43;;
6197;SDS011;3132;42.622;23.328;2023-05-07T02:36:09;12.10;;;11.30;;
6197;SDS011;3132;42.622;23.328;2023-05-07T02:38:36;14.67;;;12.17;;
6197;SDS011;3132;42.622;23.328;2023-05-07T02:41:01;13.43;;;12.43;;
6197;SDS011;3132;42.622;23.328;2023-05-07T02:43:27;13.00;;;11.93;;
6197;SDS011;3132;42.622;23.328;2023-05-07T02:46:02;13.73;;;12.63;;
6197;SDS011;3132;42.622;23.328;2023-05-07T02:48:31;12.80;;;11.80;;
6197;SDS011;3132;42.622;23.328;2023-05-07T02:50:57;14.83;;;13.83;;
6197;SDS011;3132;42.622;23.328;2023-05-07T02:53:23;13.43;;;12.33;;
6197;SDS011;3132;42.622;23.328;2023-05-07T02:55:53;12.60;;;11.63;;
6197;SDS011;3132;42.622;23.328;2023-05-07T02:58:19;14.03;;;12.90;;
6197;SDS011;3132;42.622;23.328;2023-05-07T03:00:44;15.80;;;14.23;;
6197;SDS011;3132;42.622;23.328;2023-05-07T03:03:10;14.67;;;13.53;;
6197;SDS011;3132;42.622;23.328;2023-05-07T03:05:35;15.37;;;14.00;;
6197;SDS011;3132;42.622;23.328;2023-05-07T03:08:01;13.90;;;12.87;;
6197;SDS011;3132;42.622;23.328;2023-05-07T03:10:26;14.73;;;13.57;;
6197;SDS011;3132;42.622;23.328;2023-05-07T03:12:52;14.73;;;13.37;;
6197;SDS011;3132;42.622;23.328;2023-05-07T03:15:17;15.00;;;13.83;;
6197;SDS011;3132;42.622;23.328;2023-05-07T03:17:43;15.67;;;14.47;;
6197;SDS011;3132;42.622;23.328;2023-05-07T03:20:08;14.20;;;13.07;;
6197;SDS011;3132;42.622;23.328;2023-05-07T03:22:34;15.50;;;14.13;;
6197;SDS011;3132;42.622;23.328;2023-05-07T03:25:00;14.53;;;13.33;;
6197;SDS011;3132;42.622;23.328;2023-05-07T03:27:25;15.03;;;13.53;;
6197;SDS011;3132;42.622;23.328;2023-05-07T03:29:51;15.00;;;13.77;;
6197;SDS011;3132;42.622;23.328;2023-05-07T03:32:16;14.67;;;13.43;;
6197;SDS011;3132;42.622;23.328;2023-05-07T03:34:41;15.00;;;14.00;;
6197;SDS011;3132;42.622;23.328;2023-05-07T03:37:07;14.10;;;12.90;;
6197;SDS011;3132;42.622;23.328;2023-05-07T03:39:32;14.17;;;12.90;;
6197;SDS011;3132;42.622;23.328;2023-05-07T03:41:58;14.23;;;12.93;;
6197;SDS011;3132;42.622;23.328;2023-05-07T03:44:23;14.87;;;13.63;;
6197;SDS011;3132;42.622;23.328;2023-05-07T03:46:49;14.70;;;13.47;;
6197;SDS011;3132;42.622;23.328;2023-05-07T03:49:14;16.43;;;13.67;;
6197;SDS011;3132;42.622;23.328;2023-05-07T03:51:40;14.40;;;13.03;;
6197;SDS011;3132;42.622;23.328;2023-05-07T03:54:05;15.07;;;13.60;;
6197;SDS011;3132;42.622;23.328;2023-05-07T03:56:30;14.63;;;13.37;;
6197;SDS011;3132;42.622;23.328;2023-05-07T03:58:56;23.20;;;12.93;;
6197;SDS011;3132;42.622;23.328;2023-05-07T04:01:21;29.83;;;13.40;;
6197;SDS011;3132;42.622;23.328;2023-05-07T04:03:47;33.43;;;15.20;;
6197;SDS011;3132;42.622;23.328;2023-05-07T04:06:12;15.70;;;13.63;;
6197;SDS011;3132;42.622;23.328;2023-05-07T04:08:38;15.13;;;13.53;;
6197;SDS011;3132;42.622;23.328;2023-05-07T04:11:03;18.80;;;13.83;;
6197;SDS011;3132;42.622;23.328;2023-05-07T04:13:29;14.90;;;13.67;;
6197;SDS011;3132;42.622;23.328;2023-05-07T04:15:55;16.00;;;14.47;;
6197;SDS011;3132;42.622;23.328;2023-05-07T04:18:21;14.80;;;13.60;;
6197;SDS011;3132;42.622;23.328;2023-05-07T04:20:47;16.20;;;14.73;;
6197;SDS011;3132;42.622;23.328;2023-05-07T04:23:12;14.93;;;13.63;;
6197;SDS011;3132;42.622;23.328;2023-05-07T04:25:38;15.67;;;14.27;;
6197;SDS011;3132;42.622;23.328;2023-05-07T04:28:04;15.67;;;14.37;;
6197;SDS011;3132;42.622;23.328;2023-05-07T04:30:29;17.73;;;15.83;;
6197;SDS011;3132;42.622;23.328;2023-05-07T04:32:55;17.43;;;15.63;;
6197;SDS011;3132;42.622;23.328;2023-05-07T04:35:21;18.17;;;16.37;;
6197;SDS011;3132;42.622;23.328;2023-05-07T04:37:46;17.47;;;15.73;;
6197;SDS011;3132;42.622;23.328;2023-05-07T04:40:12;17.17;;;15.47;;
6197;SDS011;3132;42.622;23.328;2023-05-07T04:42:38;16.43;;;15.13;;
6197;SDS011;3132;42.622;23.328;2023-05-07T04:45:03;17.17;;;15.50;;
6197;SDS011;3132;42.622;23.328;2023-05-07T04:47:30;16.50;;;15.07;;
6197;SDS011;3132;42.622;23.328;2023-05-07T04:49:55;16.60;;;15.17;;
6197;SDS011;3132;42.622;23.328;2023-05-07T04:52:22;16.17;;;14.73;;
6197;SDS011;3132;42.622;23.328;2023-05-07T04:54:47;16.07;;;14.40;;
6197;SDS011;3132;42.622;23.328;2023-05-07T04:57:13;15.90;;;14.57;;
6197;SDS011;3132;42.622;23.328;2023-05-07T04:59:38;16.70;;;15.03;;
6197;SDS011;3132;42.622;23.328;2023-05-07T05:02:03;15.23;;;13.83;;
6197;SDS011;3132;42.622;23.328;2023-05-07T05:04:29;16.20;;;14.53;;
6197;SDS011;3132;42.622;23.328;2023-05-07T05:06:54;16.73;;;15.23;;
6197;SDS011;3132;42.622;23.328;2023-05-07T05:09:20;15.83;;;14.53;;
6197;SDS011;3132;42.622;23.328;2023-05-07T05:11:45;15.87;;;14.67;;
6197;SDS011;3132;42.622;23.328;2023-05-07T05:14:11;15.23;;;14.10;;
6197;SDS011;3132;42.622;23.328;2023-05-07T05:16:36;16.90;;;15.43;;
6197;SDS011;3132;42.622;23.328;2023-05-07T05:19:02;14.97;;;13.70;;
6197;SDS011;3132;42.622;23.328;2023-05-07T05:21:27;19.30;;;15.37;;
6197;SDS011;3132;42.622;23.328;2023-05-07T05:23:53;16.37;;;14.87;;
6197;SDS011;3132;42.622;23.328;2023-05-07T05:26:19;16.03;;;14.73;;
6197;SDS011;3132;42.622;23.328;2023-05-07T05:28:46;15.60;;;14.03;;
6197;SDS011;3132;42.622;23.328;2023-05-07T05:31:11;15.73;;;14.23;;
6197;SDS011;3132;42.622;23.328;2023-05-07T05:33:37;15.10;;;13.93;;
6197;SDS011;3132;42.622;23.328;2023-05-07T05:36:02;15.43;;;14.10;;
6197;SDS011;3132;42.622;23.328;2023-05-07T05:38:28;16.27;;;14.50;;
6197;SDS011;3132;42.622;23.328;2023-05-07T05:40:54;14.13;;;13.03;;
6197;SDS011;3132;42.622;23.328;2023-05-07T05:43:19;13.47;;;12.40;;
6197;SDS011;3132;42.622;23.328;2023-05-07T05:45:45;14.50;;;13.10;;
6197;SDS011;3132;42.622;23.328;2023-05-07T05:48:11;12.55;;;11.50;;
6197;SDS011;3132;42.622;23.328;2023-05-07T05:50:36;13.98;;;12.88;;
6197;SDS011;3132;42.622;23.328;2023-05-07T05:53:01;15.45;;;11.43;;
6197;SDS011;3132;42.622;23.328;2023-05-07T05:55:27;12.68;;;11.48;;
6197;SDS011;3132;42.622;23.328;2023-05-07T05:57:52;11.52;;;10.52;;
6197;SDS011;3132;42.622;23.328;2023-05-07T06:00:18;12.50;;;11.45;;
6197;SDS011;3132;42.622;23.328;2023-05-07T06:02:43;11.65;;;10.65;;
6197;SDS011;3132;42.622;23.328;2023-05-07T06:05:09;11.85;;;10.65;;
6197;SDS011;3132;42.622;23.328;2023-05-07T06:07:34;12.55;;;11.38;;
6197;SDS011;3132;42.622;23.328;2023-05-07T06:10:00;11.45;;;10.43;;
6197;SDS011;3132;42.622;23.328;2023-05-07T06:12:26;12.07;;;11.02;;
6197;SDS011;3132;42.622;23.328;2023-05-07T06:14:51;12.07;;;10.88;;
6197;SDS011;3132;42.622;23.328;2023-05-07T06:17:17;12.25;;;11.25;;
6197;SDS011;3132;42.622;23.328;2023-05-07T06:19:42;11.65;;;10.75;;
6197;SDS011;3132;42.622;23.328;2023-05-07T06:22:08;12.10;;;11.10;;
6197;SDS011;3132;42.622;23.328;2023-05-07T06:24:33;11.30;;;10.50;;
6197;SDS011;3132;42.622;23.328;2023-05-07T06:26:58;12.00;;;11.00;;
6197;SDS011;3132;42.622;23.328;2023-05-07T06:29:24;13.68;;;11.70;;
6197;SDS011;3132;42.622;23.328;2023-05-07T06:31:51;12.38;;;11.38;;
6197;SDS011;3132;42.622;23.328;2023-05-07T06:34:20;12.85;;;11.82;;
6197;SDS011;3132;42.622;23.328;2023-05-07T06:36:45;12.93;;;11.73;;
6197;SDS011;3132;42.622;23.328;2023-05-07T06:39:10;14.13;;;11.67;;
6197;SDS011;3132;42.622;23.328;2023-05-07T06:41:36;14.00;;;12.97;;
6197;SDS011;3132;42.622;23.328;2023-05-07T06:44:02;13.30;;;12.13;;
6197;SDS011;3132;42.622;23.328;2023-05-07T06:46:28;13.70;;;12.40;;
6197;SDS011;3132;42.622;23.328;2023-05-07T06:48:53;13.33;;;12.23;;
6197;SDS011;3132;42.622;23.328;2023-05-07T06:51:19;14.23;;;13.13;;
6197;SDS011;3132;42.622;23.328;2023-05-07T06:53:44;13.13;;;12.10;;
6197;SDS011;3132;42.622;23.328;2023-05-07T06:56:10;13.20;;;12.20;;
6197;SDS011;3132;42.622;23.328;2023-05-07T06:58:35;13.17;;;12.23;;
6197;SDS011;3132;42.622;23.328;2023-05-07T07:01:02;12.40;;;11.50;;
6197;SDS011;3132;42.622;23.328;2023-05-07T07:03:27;13.40;;;12.27;;
6197;SDS011;3132;42.622;23.328;2023-05-07T07:05:53;12.00;;;11.10;;
6197;SDS011;3132;42.622;23.328;2023-05-07T07:08:19;12.90;;;11.77;;
6197;SDS011;3132;42.622;23.328;2023-05-07T07:10:46;13.27;;;12.33;;
6197;SDS011;3132;42.622;23.328;2023-05-07T07:13:12;12.83;;;11.93;;
6197;SDS011;3132;42.622;23.328;2023-05-07T07:15:37;13.80;;;12.70;;
6197;SDS011;3132;42.622;23.328;2023-05-07T07:18:02;13.10;;;11.77;;
6197;SDS011;3132;42.622;23.328;2023-05-07T07:20:28;14.07;;;12.73;;
6197;SDS011;3132;42.622;23.328;2023-05-07T07:22:53;11.67;;;10.67;;
6197;SDS011;3132;42.622;23.328;2023-05-07T07:25:19;12.10;;;11.10;;
6197;SDS011;3132;42.622;23.328;2023-05-07T07:27:44;13.70;;;12.30;;
6197;SDS011;3132;42.622;23.328;2023-05-07T07:30:10;12.30;;;11.50;;
6197;SDS011;3132;42.622;23.328;2023-05-07T07:32:35;13.87;;;12.50;;
6197;SDS011;3132;42.622;23.328;2023-05-07T07:35:01;13.30;;;12.10;;
6197;SDS011;3132;42.622;23.328;2023-05-07T07:37:27;13.13;;;11.97;;
6197;SDS011;3132;42.622;23.328;2023-05-07T07:39:52;12.13;;;11.33;;
6197;SDS011;3132;42.622;23.328;2023-05-07T07:42:18;13.63;;;12.30;;
6197;SDS011;3132;42.622;23.328;2023-05-07T07:44:43;11.83;;;10.93;;
6197;SDS011;3132;42.622;23.328;2023-05-07T07:47:09;12.47;;;11.53;;
6197;SDS011;3132;42.622;23.328;2023-05-07T07:49:34;12.37;;;11.57;;
6197;SDS011;3132;42.622;23.328;2023-05-07T07:52:00;13.00;;;11.93;;
6197;SDS011;3132;42.622;23.328;2023-05-07T07:54:25;11.97;;;11.17;;
6197;SDS011;3132;42.622;23.328;2023-05-07T07:56:51;11.97;;;11.07;;
6197;SDS011;3132;42.622;23.328;2023-05-07T07:59:17;13.50;;;11.63;;
6197;SDS011;3132;42.622;23.328;2023-05-07T08:01:44;11.23;;;10.53;;
6197;SDS011;3132;42.622;23.328;2023-05-07T08:04:10;12.40;;;11.53;;
6197;SDS011;3132;42.622;23.328;2023-05-07T08:06:35;13.63;;;12.23;;
6197;SDS011;3132;42.622;23.328;2023-05-07T08:09:01;11.83;;;10.67;;
6197;SDS011;3132;42.622;23.328;2023-05-07T08:11:27;12.03;;;11.23;;
6197;SDS011;3132;42.622;23.328;2023-05-07T08:13:53;13.43;;;12.37;;
6197;SDS011;3132;42.622;23.328;2023-05-07T08:16:19;12.77;;;11.77;;
6197;SDS011;3132;42.622;23.328;2023-05-07T08:18:45;12.10;;;11.30;;
6197;SDS011;3132;42.622;23.328;2023-05-07T08:21:10;12.20;;;11.10;;
6197;SDS011;3132;42.622;23.328;2023-05-07T08:23:36;13.20;;;12.03;;
6197;SDS011;3132;42.622;23.328;2023-05-07T08:26:01;13.20;;;12.07;;
6197;SDS011;3132;42.622;23.328;2023-05-07T08:28:26;13.77;;;12.67;;
6197;SDS011;3132;42.622;23.328;2023-05-07T08:30:52;12.10;;;11.23;;
6197;SDS011;3132;42.622;23.328;2023-05-07T08:33:17;12.50;;;11.60;;
6197;SDS011;3132;42.622;23.328;2023-05-07T08:35:43;12.20;;;11.20;;
6197;SDS011;3132;42.622;23.328;2023-05-07T08:38:08;13.37;;;12.07;;
6197;SDS011;3132;42.622;23.328;2023-05-07T08:40:36;12.93;;;12.00;;
6197;SDS011;3132;42.622;23.328;2023-05-07T08:43:04;12.37;;;11.30;;
6197;SDS011;3132;42.622;23.328;2023-05-07T08:45:30;12.47;;;11.50;;
6197;SDS011;3132;42.622;23.328;2023-05-07T08:47:59;14.00;;;12.77;;
6197;SDS011;3132;42.622;23.328;2023-05-07T08:50:28;14.97;;;13.23;;
6197;SDS011;3132;42.622;23.328;2023-05-07T08:52:53;15.60;;;14.00;;
6197;SDS011;3132;42.622;23.328;2023-05-07T08:55:19;13.13;;;11.93;;
6197;SDS011;3132;42.622;23.328;2023-05-07T08:57:45;13.47;;;12.37;;
6197;SDS011;3132;42.622;23.328;2023-05-07T09:00:12;13.53;;;12.43;;
6197;SDS011;3132;42.622;23.328;2023-05-07T09:02:37;13.50;;;12.50;;
6197;SDS011;3132;42.622;23.328;2023-05-07T09:05:03;13.90;;;12.67;;
6197;SDS011;3132;42.622;23.328;2023-05-07T09:07:29;14.23;;;13.13;;
6197;SDS011;3132;42.622;23.328;2023-05-07T09:09:55;14.90;;;13.20;;
6197;SDS011;3132;42.622;23.328;2023-05-07T09:12:22;13.17;;;12.07;;
6197;SDS011;3132;42.622;23.328;2023-05-07T09:14:48;13.57;;;12.47;;
6197;SDS011;3132;42.622;23.328;2023-05-07T09:17:17;14.17;;;12.73;;
6197;SDS011;3132;42.622;23.328;2023-05-07T09:19:44;13.47;;;12.37;;
6197;SDS011;3132;42.622;23.328;2023-05-07T09:22:13;12.97;;;11.87;;
6197;SDS011;3132;42.622;23.328;2023-05-07T09:24:39;18.30;;;13.20;;
6197;SDS011;3132;42.622;23.328;2023-05-07T09:27:05;13.10;;;11.97;;
6197;SDS011;3132;42.622;23.328;2023-05-07T09:29:31;14.23;;;12.93;;
6197;SDS011;3132;42.622;23.328;2023-05-07T09:32:06;12.97;;;11.97;;
6197;SDS011;3132;42.622;23.328;2023-05-07T09:34:33;13.57;;;12.50;;
6197;SDS011;3132;42.622;23.328;2023-05-07T09:37:02;13.40;;;12.10;;
6197;SDS011;3132;42.622;23.328;2023-05-07T09:39:41;12.53;;;11.63;;
6197;SDS011;3132;42.622;23.328;2023-05-07T09:42:08;12.43;;;11.43;;
6197;SDS011;3132;42.622;23.328;2023-05-07T09:44:34;14.00;;;12.90;;
6197;SDS011;3132;42.622;23.328;2023-05-07T09:47:01;12.97;;;11.97;;
6197;SDS011;3132;42.622;23.328;2023-05-07T09:49:29;13.57;;;12.57;;
6197;SDS011;3132;42.622;23.328;2023-05-07T09:51:55;13.27;;;12.17;;
6197;SDS011;3132;42.622;23.328;2023-05-07T09:54:22;14.77;;;12.03;;
6197;SDS011;3132;42.622;23.328;2023-05-07T09:56:50;12.67;;;11.50;;
6197;SDS011;3132;42.622;23.328;2023-05-07T09:59:17;12.60;;;11.60;;
6197;SDS011;3132;42.622;23.328;2023-05-07T10:01:44;12.37;;;11.37;;
6197;SDS011;3132;42.622;23.328;2023-05-07T10:04:10;12.80;;;11.23;;
6197;SDS011;3132;42.622;23.328;2023-05-07T10:06:36;12.43;;;11.63;;
6197;SDS011;3132;42.622;23.328;2023-05-07T10:09:03;12.80;;;11.85;;
6197;SDS011;3132;42.622;23.328;2023-05-07T10:11:33;12.68;;;11.73;;
6197;SDS011;3132;42.622;23.328;2023-05-07T10:13:59;12.75;;;11.65;;
6197;SDS011;3132;42.622;23.328;2023-05-07T10:16:27;11.87;;;10.67;;
6197;SDS011;3132;42.622;23.328;2023-05-07T10:18:57;13.20;;;12.00;;
6197;SDS011;3132;42.622;23.328;2023-05-07T10:21:23;12.87;;;11.73;;
6197;SDS011;3132;42.622;23.328;2023-05-07T10:23:57;12.77;;;11.57;;
6197;SDS011;3132;42.622;23.328;2023-05-07T10:26:31;12.77;;;11.68;;
6197;SDS011;3132;42.622;23.328;2023-05-07T10:29:01;12.80;;;11.80;;
6197;SDS011;3132;42.622;23.328;2023-05-07T10:31:52;13.63;;;12.63;;
6197;SDS011;3132;42.622;23.328;2023-05-07T10:34:53;13.30;;;12.03;;
6197;SDS011;3132;42.622;23.328;2023-05-07T10:37:20;12.63;;;11.30;;
6197;SDS011;3132;42.622;23.328;2023-05-07T10:39:46;12.30;;;11.50;;
6197;SDS011;3132;42.622;23.328;2023-05-07T10:42:12;12.40;;;11.20;;
6197;SDS011;3132;42.622;23.328;2023-05-07T10:44:39;13.60;;;12.40;;
6197;SDS011;3132;42.622;23.328;2023-05-07T10:50:20;11.98;;;11.18;;
6197;SDS011;3132;42.622;23.328;2023-05-07T10:52:20;11.67;;;10.77;;
6197;SDS011;3132;42.622;23.328;2023-05-07T10:54:48;12.73;;;11.83;;
6197;SDS011;3132;42.622;23.328;2023-05-07T10:57:43;12.83;;;11.67;;
6197;SDS011;3132;42.622;23.328;2023-05-07T11:00:40;12.13;;;11.23;;
6197;SDS011;3132;42.622;23.328;2023-05-07T11:05:29;12.03;;;11.00;;
6197;SDS011;3132;42.622;23.328;2023-05-07T11:13:16;11.70;;;10.80;;
6197;SDS011;3132;42.622;23.328;2023-05-07T11:15:46;12.70;;;11.70;;
6197;SDS011;3132;42.622;23.328;2023-05-07T11:18:14;11.90;;;11.10;;
6197;SDS011;3132;42.622;23.328;2023-05-07T11:20:51;12.43;;;11.63;;
6197;SDS011;3132;42.622;23.328;2023-05-07T11:26:08;11.70;;;10.90;;
6197;SDS011;3132;42.622;23.328;2023-05-07T11:28:41;11.73;;;10.80;;
6197;SDS011;3132;42.622;23.328;2023-05-07T11:31:08;12.07;;;11.20;;
6197;SDS011;3132;42.622;23.328;2023-05-07T11:33:35;11.43;;;10.52;;
6197;SDS011;3132;42.622;23.328;2023-05-07T11:36:04;11.23;;;10.35;;
6197;SDS011;3132;42.622;23.328;2023-05-07T11:38:30;12.73;;;11.63;;
6197;SDS011;3132;42.622;23.328;2023-05-07T11:41:00;11.48;;;10.57;;
6197;SDS011;3132;42.622;23.328;2023-05-07T11:43:26;11.43;;;10.43;;
6197;SDS011;3132;42.622;23.328;2023-05-07T11:45:52;11.52;;;10.77;;
6197;SDS011;3132;42.622;23.328;2023-05-07T11:48:17;11.27;;;10.27;;
6197;SDS011;3132;42.622;23.328;2023-05-07T11:50:53;11.82;;;10.80;;
6197;SDS011;3132;42.622;23.328;2023-05-07T11:53:24;11.68;;;10.82;;
6197;SDS011;3132;42.622;23.328;2023-05-07T11:55:56;11.90;;;10.90;;
6197;SDS011;3132;42.622;23.328;2023-05-07T11:58:23;11.07;;;10.38;;
6197;SDS011;3132;42.622;23.328;2023-05-07T12:00:50;11.82;;;10.80;;
6197;SDS011;3132;42.622;23.328;2023-05-07T12:03:19;11.60;;;10.80;;
6197;SDS011;3132;42.622;23.328;2023-05-07T12:05:46;11.60;;;10.80;;
6197;SDS011;3132;42.622;23.328;2023-05-07T12:08:19;11.48;;;10.68;;
6197;SDS011;3132;42.622;23.328;2023-05-07T12:10:47;11.93;;;10.90;;
6197;SDS011;3132;42.622;23.328;2023-05-07T12:13:16;10.80;;;10.10;;
6197;SDS011;3132;42.622;23.328;2023-05-07T12:15:45;11.25;;;10.50;;
6197;SDS011;3132;42.622;23.328;2023-05-07T12:18:11;10.85;;;10.18;;
6197;SDS011;3132;42.622;23.328;2023-05-07T12:20:38;10.77;;;10.07;;
6197;SDS011;3132;42.622;23.328;2023-05-07T12:23:04;11.70;;;10.93;;
6197;SDS011;3132;42.622;23.328;2023-05-07T12:25:37;10.80;;;10.00;;
6197;SDS011;3132;42.622;23.328;2023-05-07T12:28:04;11.00;;;10.32;;
6197;SDS011;3132;42.622;23.328;2023-05-07T12:30:31;10.88;;;9.98;;
6197;SDS011;3132;42.622;23.328;2023-05-07T12:32:57;9.50;;;8.88;;
6197;SDS011;3132;42.622;23.328;2023-05-07T12:35:26;10.82;;;10.23;;
6197;SDS011;3132;42.622;23.328;2023-05-07T12:38:01;11.30;;;10.43;;
6197;SDS011;3132;42.622;23.328;2023-05-07T12:40:42;11.10;;;10.40;;
6197;SDS011;3132;42.622;23.328;2023-05-07T12:43:19;11.00;;;10.20;;
6197;SDS011;3132;42.622;23.328;2023-05-07T12:45:51;11.38;;;10.48;;
6197;SDS011;3132;42.622;23.328;2023-05-07T12:48:20;10.63;;;9.93;;
6197;SDS011;3132;42.622;23.328;2023-05-07T12:50:48;10.65;;;10.02;;
6197;SDS011;3132;42.622;23.328;2023-05-07T12:53:14;11.18;;;10.13;;
6197;SDS011;3132;42.622;23.328;2023-05-07T12:55:47;11.57;;;10.77;;
6197;SDS011;3132;42.622;23.328;2023-05-07T12:58:15;10.60;;;9.85;;
6197;SDS011;3132;42.622;23.328;2023-05-07T13:00:42;10.88;;;10.07;;
6197;SDS011;3132;42.622;23.328;2023-05-07T13:03:08;10.40;;;9.70;;
6197;SDS011;3132;42.622;23.328;2023-05-07T13:05:34;11.15;;;10.27;;
6197;SDS011;3132;42.622;23.328;2023-05-07T13:08:00;10.90;;;10.10;;
6197;SDS011;3132;42.622;23.328;2023-05-07T13:10:25;10.73;;;9.93;;
6197;SDS011;3132;42.622;23.328;2023-05-07T13:12:51;11.23;;;10.18;;
6197;SDS011;3132;42.622;23.328;2023-05-07T13:15:17;10.27;;;9.57;;
6197;SDS011;3132;42.622;23.328;2023-05-07T13:17:43;10.57;;;9.77;;
6197;SDS011;3132;42.622;23.328;2023-05-07T13:20:09;10.65;;;9.88;;
6197;SDS011;3132;42.622;23.328;2023-05-07T13:22:36;11.25;;;10.40;;
6197;SDS011;3132;42.622;23.328;2023-05-07T13:25:02;11.85;;;11.00;;
6197;SDS011;3132;42.622;23.328;2023-05-07T13:27:27;11.38;;;10.68;;
6197;SDS011;3132;42.622;23.328;2023-05-07T13:29:52;11.35;;;10.45;;
6197;SDS011;3132;42.622;23.328;2023-05-07T13:32:18;11.80;;;10.57;;
6197;SDS011;3132;42.622;23.328;2023-05-07T13:34:43;10.50;;;9.80;;
6197;SDS011;3132;42.622;23.328;2023-05-07T13:37:08;9.95;;;9.15;;
6197;SDS011;3132;42.622;23.328;2023-05-07T13:39:34;12.73;;;11.05;;
6197;SDS011;3132;42.622;23.328;2023-05-07T13:41:59;12.07;;;11.18;;
6197;SDS011;3132;42.622;23.328;2023-05-07T13:44:25;10.82;;;10.02;;
6197;SDS011;3132;42.622;23.328;2023-05-07T13:46:51;11.25;;;10.43;;
6197;SDS011;3132;42.622;23.328;2023-05-07T13:49:16;10.68;;;9.88;;
6197;SDS011;3132;42.622;23.328;2023-05-07T13:51:42;11.43;;;10.55;;
6197;SDS011;3132;42.622;23.328;2023-05-07T13:54:07;11.38;;;10.35;;
6197;SDS011;3132;42.622;23.328;2023-05-07T13:56:32;10.60;;;9.68;;
6197;SDS011;3132;42.622;23.328;2023-05-07T13:58:58;10.43;;;9.73;;
6197;SDS011;3132;42.622;23.328;2023-05-07T14:01:23;10.80;;;10.00;;
6197;SDS011;3132;42.622;23.328;2023-05-07T14:03:49;10.95;;;10.13;;
6197;SDS011;3132;42.622;23.328;2023-05-07T14:06:14;10.65;;;9.77;;
6197;SDS011;3132;42.622;23.328;2023-05-07T14:08:39;10.60;;;9.90;;
6197;SDS011;3132;42.622;23.328;2023-05-07T14:11:05;10.32;;;9.60;;
6197;SDS011;3132;42.622;23.328;2023-05-07T14:13:31;10.93;;;10.02;;
6197;SDS011;3132;42.622;23.328;2023-05-07T14:15:57;10.07;;;9.30;;
6197;SDS011;3132;42.622;23.328;2023-05-07T14:18:22;10.60;;;9.93;;
6197;SDS011;3132;42.622;23.328;2023-05-07T14:20:48;9.88;;;9.27;;
6197;SDS011;3132;42.622;23.328;2023-05-07T14:23:13;10.38;;;9.77;;
6197;SDS011;3132;42.622;23.328;2023-05-07T14:25:39;10.77;;;10.07;;
6197;SDS011;3132;42.622;23.328;2023-05-07T14:28:05;10.02;;;9.40;;
6197;SDS011;3132;42.622;23.328;2023-05-07T14:30:31;10.30;;;9.70;;
6197;SDS011;3132;42.622;23.328;2023-05-07T14:32:56;10.18;;;9.55;;
6197;SDS011;3132;42.622;23.328;2023-05-07T14:35:22;10.20;;;9.50;;
6197;SDS011;3132;42.622;23.328;2023-05-07T14:37:47;9.30;;;8.80;;
6197;SDS011;3132;42.622;23.328;2023-05-07T14:40:12;9.80;;;9.20;;
6197;SDS011;3132;42.622;23.328;2023-05-07T14:42:39;9.77;;;9.23;;
6197;SDS011;3132;42.622;23.328;2023-05-07T14:45:05;9.90;;;8.98;;
6197;SDS011;3132;42.622;23.328;2023-05-07T14:47:31;11.18;;;10.50;;